Tunka, Russia
Current Conditions -  °F | °C
As of 11:00 AM on Wednesday 26 Nov 2014 (Local Time) from UIII Reporting Station
Clear Clear  
Wind Chill: -28°   Ceiling: Unl
Heat Index: -13°   Visibility: 6mi
Dew Point: -20°   Wind: 7mph
Humidity: 70%   Direction: 60°ENE
Pressure: 29.94"   Gusts: NA
Location:  51.74°N, 102.55°E
Report Text: UIII 260300Z 06003MPS CAVOK M25/M29 Q1014 NOSIG RMK QFE716/095530810360
Loading
Personal Weather Stations






























Interactive Weather Map New forecast layout! Learn more

10-Day Weather Forecast

Advertisements
Track Severe Weather on mobile